Time;durP1;ratioP1;P1;durP2;ratioP2;P2;SDS_P1;SDS_P2;PMS_P1;PMS_P2;Temp;Humidity;BMP_temperature;BMP_pressure;BME280_temperature;BME280_humidity;BME280_pressure;Samples;Min_cycle;Max_cycle;Signal;HPM_P1;HPM_P2
2023/06/23 00:00:13;;;;;;;9.07;3.77;;;22.80;96.30;;;;;;5047233;28;20886;-82
2023/06/23 00:02:40;;;;;;;6.77;3.03;;;22.80;96.60;;;;;;5042731;28;20856;-76
2023/06/23 00:05:08;;;;;;;5.67;2.40;;;22.70;96.90;;;;;;5045657;28;20459;-80
2023/06/23 00:07:36;;;;;;;8.97;3.53;;;22.70;97.30;;;;;;5043433;28;20495;-78
2023/06/23 00:10:06;;;;;;;10.03;2.73;;;22.70;97.60;;;;;;5046043;28;20606;-78
2023/06/23 00:12:35;;;;;;;12.00;3.87;;;22.70;97.60;;;;;;5047234;28;20448;-78
2023/06/23 00:15:03;;;;;;;9.83;2.70;;;22.70;97.90;;;;;;5043496;28;20436;-78
2023/06/23 00:17:30;;;;;;;9.40;3.10;;;22.70;98.00;;;;;;5045400;28;20523;-77
2023/06/23 00:19:58;;;;;;;8.97;2.90;;;22.60;98.30;;;;;;5045241;28;20540;-80
2023/06/23 00:22:27;;;;;;;5.27;3.30;;;22.70;98.20;;;;;;5039490;28;20445;-80
2023/06/23 00:24:55;;;;;;;7.67;3.33;;;22.70;98.20;;;;;;5043303;28;20449;-78
2023/06/23 00:27:23;;;;;;;14.07;2.93;;;22.70;98.30;;;;;;5059479;28;20461;-79
2023/06/23 00:29:50;;;;;;;7.20;2.43;;;22.70;98.00;;;;;;5058662;28;20495;-79
2023/06/23 00:32:17;;;;;;;3.30;2.63;;;22.70;98.00;;;;;;5048197;28;20532;-78
2023/06/23 00:34:44;;;;;;;5.20;4.07;;;22.70;98.20;;;;;;5044214;28;20523;-78
2023/06/23 00:37:11;;;;;;;7.53;3.27;;;22.70;98.40;;;;;;5045032;28;20468;-79
2023/06/23 00:39:38;;;;;;;6.23;2.53;;;22.60;98.50;;;;;;5046153;28;20452;-81
2023/06/23 00:42:06;;;;;;;17.83;4.17;;;22.60;98.70;;;;;;5045810;28;20510;-78
2023/06/23 00:44:37;;;;;;;4.20;2.50;;;22.60;98.70;;;;;;5043377;28;20532;-80
2023/06/23 00:47:05;;;;;;;5.67;2.47;;;22.70;98.90;;;;;;5046307;28;20453;-78
2023/06/23 00:49:34;;;;;;;7.83;2.90;;;22.60;99.00;;;;;;5042366;28;20494;-81
2023/06/23 00:52:03;;;;;;;5.57;2.00;;;22.60;99.20;;;;;;5046295;28;20493;-79
2023/06/23 00:54:34;;;;;;;5.47;1.90;;;22.60;99.40;;;;;;5045922;28;20523;-77
2023/06/23 00:57:01;;;;;;;3.90;2.70;;;22.60;99.60;;;;;;5042888;28;20963;-78
2023/06/23 00:59:29;;;;;;;6.23;2.60;;;22.50;99.70;;;;;;5039219;28;21039;-77
2023/06/23 01:02:01;;;;;;;4.57;2.70;;;22.50;99.90;;;;;;5042594;28;20453;-78
2023/06/23 01:04:29;;;;;;;5.13;1.90;;;22.40;99.80;;;;;;5044250;28;20449;-78
2023/06/23 01:07:09;;;;;;;2.60;1.73;;;22.50;98.10;;;;;;5042011;28;20446;-77
2023/06/23 01:09:50;;;;;;;4.50;2.87;;;22.50;97.60;;;;;;5043635;28;20498;-78
2023/06/23 01:12:26;;;;;;;4.47;1.70;;;22.40;96.50;;;;;;5044761;28;20516;-78
2023/06/23 01:15:01;;;;;;;2.60;1.27;;;22.40;95.80;;;;;;5042118;28;20990;-79
2023/06/23 01:17:40;;;;;;;3.07;1.53;;;22.30;95.70;;;;;;5048950;28;20456;-80
2023/06/23 01:20:20;;;;;;;1.63;1.47;;;22.30;95.50;;;;;;5048250;28;20473;-78
2023/06/23 01:23:16;;;;;;;3.40;1.50;;;22.30;95.60;;;;;;5049916;28;20436;-78
2023/06/23 01:25:54;;;;;;;5.07;2.17;;;22.20;95.50;;;;;;5031635;28;20458;-78
2023/06/23 01:28:41;;;;;;;3.77;1.10;;;22.20;95.40;;;;;;5046759;28;20459;-78
2023/06/23 01:31:13;;;;;;;2.90;1.20;;;22.20;95.60;;;;;;5047519;28;20515;-77
2023/06/23 01:33:44;;;;;;;2.23;1.47;;;22.20;95.50;;;;;;5045951;28;20445;-78
2023/06/23 01:36:15;;;;;;;7.03;2.40;;;22.20;95.60;;;;;;5048544;28;21223;-78
2023/06/23 01:38:48;;;;;;;6.70;1.70;;;22.20;95.40;;;;;;5048618;28;20480;-80
2023/06/23 01:41:19;;;;;;;3.83;1.93;;;22.20;96.00;;;;;;5047793;28;20457;-78
2023/06/23 01:43:51;;;;;;;4.30;1.83;;;22.10;95.90;;;;;;5046408;28;20497;-78
2023/06/23 01:46:25;;;;;;;6.17;1.30;;;22.00;96.10;;;;;;5048223;28;20919;-78
2023/06/23 01:48:56;;;;;;;3.83;1.67;;;22.00;96.50;;;;;;5046901;28;20538;-77
2023/06/23 01:51:26;;;;;;;3.80;2.93;;;22.00;96.60;;;;;;5066185;28;20477;-77
2023/06/23 01:53:55;;;;;;;5.27;1.83;;;21.90;96.80;;;;;;5059619;28;20449;-81
2023/06/23 01:56:25;;;;;;;2.07;1.47;;;21.90;97.10;;;;;;5051360;28;20956;-78
2023/06/23 01:58:54;;;;;;;3.77;1.40;;;21.80;97.40;;;;;;5048763;28;20489;-78
2023/06/23 02:01:23;;;;;;;4.50;2.10;;;21.80;97.60;;;;;;5047369;28;21063;-78
2023/06/23 02:03:51;;;;;;;9.53;1.90;;;21.80;97.60;;;;;;5045133;28;20473;-80
2023/06/23 02:06:19;;;;;;;5.30;1.80;;;21.80;97.90;;;;;;5045029;28;20485;-78
2023/06/23 02:08:47;;;;;;;3.50;1.77;;;21.70;98.30;;;;;;5047818;28;20460;-80
2023/06/23 02:11:15;;;;;;;2.70;1.80;;;21.70;98.30;;;;;;5047725;28;20521;-78
2023/06/23 02:13:44;;;;;;;2.70;1.23;;;21.70;98.50;;;;;;5045167;28;20472;-78
2023/06/23 02:16:14;;;;;;;2.80;1.40;;;21.70;98.40;;;;;;5047756;28;20481;-81
2023/06/23 02:18:42;;;;;;;4.00;1.47;;;21.70;98.30;;;;;;5045465;28;20515;-80
2023/06/23 02:21:12;;;;;;;2.60;1.40;;;21.70;98.50;;;;;;5044832;28;21007;-82
2023/06/23 02:23:40;;;;;;;1.70;1.13;;;21.70;98.60;;;;;;5046681;28;20535;-78
2023/06/23 02:26:08;;;;;;;4.37;1.80;;;21.70;99.10;;;;;;5043455;28;20456;-78
2023/06/23 02:28:36;;;;;;;6.43;3.23;;;21.60;99.30;;;;;;5040450;28;21049;-78
2023/06/23 02:31:05;;;;;;;3.33;2.17;;;21.50;99.50;;;;;;5042403;28;21103;-78
2023/06/23 02:33:33;;;;;;;6.03;2.27;;;21.50;99.60;;;;;;5040101;28;20495;-81
2023/06/23 02:36:02;;;;;;;9.70;2.03;;;21.50;99.90;;;;;;5037338;28;20446;-81
2023/06/23 02:38:31;;;;;;;2.30;1.83;;;21.50;99.90;;;;;;5041774;28;20483;-79
2023/06/23 02:41:00;;;;;;;4.83;1.93;;;21.50;99.90;;;;;;5043036;28;20445;-78
2023/06/23 02:43:30;;;;;;;3.23;1.93;;;21.50;99.90;;;;;;5043031;28;21037;-78
2023/06/23 02:46:01;;;;;;;6.97;2.80;;;21.40;99.90;;;;;;5045565;28;20445;-78
2023/06/23 02:48:36;;;;;;;4.33;1.80;;;21.50;99.90;;;;;;5037587;28;20960;-77
2023/06/23 02:51:04;;;;;;;6.50;1.90;;;21.50;99.90;;;;;;5034621;28;20518;-78
2023/06/23 02:53:39;;;;;;;3.63;2.40;;;21.50;99.90;;;;;;5044099;28;20471;-77
2023/06/23 02:56:16;;;;;;;3.30;1.70;;;21.50;99.90;;;;;;5040428;28;20471;-77
2023/06/23 02:58:47;;;;;;;2.23;1.50;;;21.40;99.90;;;;;;5036764;28;20456;-77
2023/06/23 03:01:15;;;;;;;4.33;1.90;;;21.40;99.90;;;;;;5038720;28;20470;-79
2023/06/23 03:03:45;;;;;;;4.33;1.80;;;21.40;99.90;;;;;;5041221;28;20465;-76
2023/06/23 03:06:23;;;;;;;7.10;2.80;;;21.40;99.90;;;;;;5038190;28;20455;-78
2023/06/23 03:08:51;;;;;;;6.30;2.27;;;21.30;99.90;;;;;;5044801;28;20492;-78
2023/06/23 03:11:18;;;;;;;5.30;2.60;;;21.20;99.90;;;;;;5044515;28;20542;-81
2023/06/23 03:13:46;;;;;;;4.07;2.03;;;21.20;99.90;;;;;;5045913;28;20787;-78
2023/06/23 03:16:19;;;;;;;3.03;1.00;;;21.10;99.90;;;;;;5045853;28;20940;-77
2023/06/23 03:19:01;;;;;;;2.17;1.53;;;21.00;99.90;;;;;;5046089;28;20514;-78
2023/06/23 03:21:28;;;;;;;6.47;1.33;;;21.00;99.90;;;;;;5046583;28;20538;-78
2023/06/23 03:23:58;;;;;;;1.83;1.07;;;20.90;99.70;;;;;;5062779;28;20441;-80
2023/06/23 03:26:28;;;;;;;2.93;1.43;;;20.80;99.90;;;;;;5058260;28;20817;-79
2023/06/23 03:28:58;;;;;;;2.43;1.50;;;20.70;99.90;;;;;;5049658;28;20814;-77
2023/06/23 03:31:27;;;;;;;3.70;1.40;;;20.60;99.90;;;;;;5046506;28;20484;-78
2023/06/23 03:33:58;;;;;;;6.43;1.20;;;20.50;99.90;;;;;;5043829;28;20454;-81
2023/06/23 03:36:26;;;;;;;3.27;1.37;;;20.50;99.90;;;;;;5044492;28;20457;-79
2023/06/23 03:39:01;;;;;;;3.87;1.20;;;20.40;99.90;;;;;;5042284;28;20490;-80
2023/06/23 03:41:30;;;;;;;1.53;0.90;;;20.50;99.90;;;;;;5045110;28;20455;-80
2023/06/23 03:44:00;;;;;;;2.43;1.30;;;20.50;99.90;;;;;;5039766;28;20450;-80
2023/06/23 03:46:32;;;;;;;3.30;1.40;;;20.40;99.90;;;;;;5042427;28;21041;-78
2023/06/23 03:49:04;;;;;;;4.30;1.40;;;20.40;99.90;;;;;;5040418;28;20635;-80
2023/06/23 03:51:36;;;;;;;3.17;1.30;;;20.40;99.90;;;;;;5040937;28;21217;-79
2023/06/23 03:54:05;;;;;;;1.27;1.00;;;20.50;99.90;;;;;;5040754;28;20465;-79
2023/06/23 03:56:35;;;;;;;3.93;2.70;;;20.50;99.90;;;;;;5037202;28;20697;-78
2023/06/23 03:59:04;;;;;;;5.80;1.30;;;20.40;99.90;;;;;;5036760;28;20525;-79
2023/06/23 04:01:33;;;;;;;3.53;1.13;;;20.40;99.90;;;;;;5043302;28;20502;-78
2023/06/23 04:04:04;;;;;;;2.73;1.03;;;20.40;99.90;;;;;;5043604;28;20458;-79
2023/06/23 04:06:33;;;;;;;1.70;0.83;;;20.30;99.60;;;;;;5042410;28;20527;-79
2023/06/23 04:09:03;;;;;;;3.30;0.80;;;20.20;99.80;;;;;;5041328;28;20956;-78
2023/06/23 04:11:31;;;;;;;5.50;1.00;;;20.20;99.90;;;;;;5042506;28;20480;-79
2023/06/23 04:13:59;;;;;;;2.93;0.93;;;20.20;99.90;;;;;;5044695;28;20538;-79
2023/06/23 04:16:27;;;;;;;1.90;0.90;;;20.10;99.90;;;;;;5036732;28;20470;-79
2023/06/23 04:18:56;;;;;;;2.23;1.13;;;20.00;99.90;;;;;;5043659;28;20524;-80
2023/06/23 04:21:25;;;;;;;1.13;0.70;;;20.00;99.90;;;;;;5033127;28;20470;-79
2023/06/23 04:23:53;;;;;;;1.80;0.77;;;20.00;99.90;;;;;;5037293;28;20538;-79
2023/06/23 04:26:21;;;;;;;1.83;0.97;;;20.00;99.90;;;;;;5043027;28;20499;-79
2023/06/23 04:28:50;;;;;;;1.80;0.93;;;20.00;99.90;;;;;;5040321;28;20549;-80
2023/06/23 04:31:20;;;;;;;2.50;0.70;;;19.90;99.90;;;;;;5037087;28;20453;-79
2023/06/23 04:33:48;;;;;;;1.60;0.90;;;20.00;99.90;;;;;;5037422;28;20527;-78
2023/06/23 04:36:17;;;;;;;1.20;0.97;;;20.10;99.90;;;;;;5042653;28;20540;-80
2023/06/23 04:38:51;;;;;;;1.53;0.70;;;20.20;99.90;;;;;;5039555;28;22185;-79
2023/06/23 04:41:23;;;;;;;0.90;0.70;;;20.50;99.70;;;;;;5041384;28;20499;-79
2023/06/23 04:43:54;;;;;;;0.70;0.63;;;20.50;98.80;;;;;;5030877;28;21015;-79
2023/06/23 04:46:25;;;;;;;1.43;0.77;;;20.60;98.90;;;;;;5038313;28;20499;-82
2023/06/23 04:48:55;;;;;;;3.60;0.73;;;20.60;98.30;;;;;;5042986;28;20451;-81
2023/06/23 04:51:26;;;;;;;2.10;0.80;;;20.60;98.30;;;;;;5053082;28;20464;-79
2023/06/23 04:53:59;;;;;;;1.30;0.83;;;20.60;97.80;;;;;;5051296;28;20454;-82
2023/06/23 04:56:32;;;;;;;1.43;1.10;;;20.50;98.00;;;;;;5040737;28;20460;-82
2023/06/23 04:59:03;;;;;;;2.00;0.80;;;20.50;98.20;;;;;;5045727;28;20505;-81
2023/06/23 05:01:32;;;;;;;1.20;0.70;;;20.50;98.00;;;;;;5041722;28;20546;-79
2023/06/23 05:04:02;;;;;;;0.90;0.80;;;20.60;97.90;;;;;;5040779;28;20550;-79
2023/06/23 05:06:32;;;;;;;1.40;0.80;;;20.60;97.10;;;;;;5046762;28;20492;-81
2023/06/23 05:09:01;;;;;;;6.80;1.20;;;20.70;97.30;;;;;;5047136;28;20453;-79
2023/06/23 05:11:28;;;;;;;3.43;0.70;;;20.80;97.60;;;;;;5046499;28;20460;-81
2023/06/23 05:13:57;;;;;;;3.23;0.70;;;20.70;97.20;;;;;;5048132;28;21033;-82
2023/06/23 05:16:25;;;;;;;1.53;0.80;;;20.70;97.30;;;;;;5044743;28;20511;-78
2023/06/23 05:18:54;;;;;;;1.47;0.70;;;20.60;97.00;;;;;;5047097;28;20485;-79
2023/06/23 05:21:24;;;;;;;1.80;0.70;;;20.50;97.10;;;;;;5044579;28;20510;-79
2023/06/23 05:23:55;;;;;;;1.03;0.80;;;20.50;97.50;;;;;;5042673;28;20497;-83
2023/06/23 05:26:24;;;;;;;1.20;0.80;;;20.50;97.60;;;;;;5043166;28;20519;-78
2023/06/23 05:28:55;;;;;;;2.67;0.80;;;20.50;97.50;;;;;;5044428;28;20451;-80
2023/06/23 05:31:25;;;;;;;1.50;0.80;;;20.70;96.80;;;;;;5045450;28;20491;-79
2023/06/23 05:33:54;;;;;;;1.73;0.97;;;21.00;96.70;;;;;;5048126;28;20560;-81
2023/06/23 05:36:23;;;;;;;0.80;0.60;;;21.20;95.90;;;;;;5043511;28;20476;-79
2023/06/23 05:38:53;;;;;;;3.90;0.70;;;21.40;95.50;;;;;;5042993;28;20540;-80
2023/06/23 05:41:20;;;;;;;1.10;0.87;;;21.50;95.50;;;;;;5039930;28;20445;-79
2023/06/23 05:43:48;;;;;;;1.00;0.80;;;21.50;95.30;;;;;;5040697;28;20543;-79
2023/06/23 05:46:17;;;;;;;2.97;0.70;;;21.50;95.80;;;;;;5043803;28;20902;-79
2023/06/23 05:48:49;;;;;;;1.30;0.77;;;21.60;95.00;;;;;;5042652;28;20481;-79
2023/06/23 05:51:21;;;;;;;0.80;0.70;;;21.80;94.90;;;;;;5046240;28;20449;-79
2023/06/23 05:53:52;;;;;;;2.10;0.90;;;21.90;94.60;;;;;;5042083;28;20517;-82
2023/06/23 05:56:24;;;;;;;3.77;1.00;;;21.90;93.10;;;;;;5046260;28;20460;-80
2023/06/23 05:58:57;;;;;;;0.97;0.77;;;21.90;93.70;;;;;;5042776;28;20486;-79
2023/06/23 06:01:27;;;;;;;2.00;0.60;;;21.90;92.60;;;;;;5044279;28;20484;-79
2023/06/23 06:04:01;;;;;;;4.47;0.90;;;22.00;92.90;;;;;;5045323;28;20544;-81
2023/06/23 06:06:29;;;;;;;3.17;0.70;;;22.20;92.60;;;;;;5036455;28;20450;-79
2023/06/23 06:08:58;;;;;;;0.67;0.67;;;22.20;93.00;;;;;;5043019;28;21343;-79
2023/06/23 06:11:28;;;;;;;2.30;0.80;;;22.60;92.50;;;;;;5044179;28;21019;-79
2023/06/23 06:13:58;;;;;;;1.80;1.00;;;22.60;90.60;;;;;;5060353;28;20497;-79
2023/06/23 06:16:26;;;;;;;1.60;1.00;;;22.70;91.30;;;;;;5055425;28;20438;-79
2023/06/23 06:18:54;;;;;;;1.57;0.70;;;22.60;91.50;;;;;;5040420;28;20473;-79
2023/06/23 06:21:22;;;;;;;0.70;0.60;;;22.60;91.00;;;;;;5045916;28;20527;-83
2023/06/23 06:23:51;;;;;;;1.07;0.60;;;22.80;91.00;;;;;;5044450;28;20461;-82
2023/06/23 06:26:20;;;;;;;0.93;0.70;;;22.90;90.60;;;;;;5042771;28;20952;-79
2023/06/23 06:28:51;;;;;;;1.33;0.77;;;23.00;90.60;;;;;;5042928;28;20538;-79
2023/06/23 06:31:20;;;;;;;1.83;0.80;;;22.90;90.00;;;;;;5044896;28;20483;-81
2023/06/23 06:33:49;;;;;;;1.00;1.00;;;22.90;90.10;;;;;;5045193;28;20512;-80
2023/06/23 06:36:19;;;;;;;1.50;0.70;;;23.00;90.50;;;;;;5046624;28;20445;-82
2023/06/23 06:38:48;;;;;;;1.07;0.70;;;23.10;90.70;;;;;;5043308;28;21057;-79
2023/06/23 06:41:16;;;;;;;2.03;1.33;;;23.20;90.40;;;;;;5040864;28;20571;-84
2023/06/23 06:43:44;;;;;;;0.83;0.70;;;23.20;90.40;;;;;;5041267;28;20452;-80
2023/06/23 06:46:12;;;;;;;1.30;0.80;;;23.30;88.80;;;;;;5043133;28;20476;-79
2023/06/23 06:48:42;;;;;;;1.27;0.80;;;23.30;88.50;;;;;;5042893;28;20466;-79
2023/06/23 06:51:10;;;;;;;2.20;1.00;;;23.20;87.70;;;;;;5043358;28;20503;-80
2023/06/23 06:53:37;;;;;;;0.90;0.63;;;23.30;88.70;;;;;;5039342;28;20618;-82
2023/06/23 06:56:05;;;;;;;0.70;0.50;;;23.40;86.50;;;;;;5038389;28;20454;-80
2023/06/23 06:58:33;;;;;;;1.40;0.50;;;23.60;87.00;;;;;;5041236;28;20566;-80
2023/06/23 07:01:00;;;;;;;0.80;0.60;;;23.70;85.70;;;;;;5039253;28;20471;-79
2023/06/23 07:03:27;;;;;;;5.60;0.70;;;23.60;86.40;;;;;;5042825;28;20494;-79
2023/06/23 07:05:56;;;;;;;0.80;0.50;;;23.30;86.10;;;;;;5036600;28;20475;-82
2023/06/23 07:08:24;;;;;;;0.90;0.70;;;23.40;87.10;;;;;;5045583;28;20475;-82
2023/06/23 07:10:51;;;;;;;0.77;0.60;;;23.60;86.70;;;;;;5047116;28;20504;-80
2023/06/23 07:13:18;;;;;;;2.43;0.60;;;23.60;86.70;;;;;;5046762;28;20528;-80
2023/06/23 07:15:45;;;;;;;6.43;0.70;;;23.60;86.90;;;;;;5045148;28;20531;-80
2023/06/23 07:18:12;;;;;;;1.53;0.50;;;23.70;84.50;;;;;;5045386;28;20483;-80
2023/06/23 07:20:40;;;;;;;0.57;0.40;;;23.60;82.00;;;;;;5045471;28;20826;-80
2023/06/23 07:23:09;;;;;;;2.60;1.33;;;23.80;82.70;;;;;;5047773;28;20964;-80
2023/06/23 07:25:36;;;;;;;0.83;0.40;;;23.80;80.40;;;;;;5046102;28;20444;-80
2023/06/23 07:28:03;;;;;;;1.97;0.50;;;23.80;79.30;;;;;;5046528;28;20453;-82
2023/06/23 07:30:30;;;;;;;2.20;0.50;;;23.70;79.30;;;;;;5045584;28;20496;-83
2023/06/23 07:32:57;;;;;;;5.53;0.70;;;23.60;79.50;;;;;;5046678;28;20568;-79
2023/06/23 07:35:23;;;;;;;3.93;0.53;;;23.80;81.70;;;;;;5050382;28;20489;-80
2023/06/23 07:37:50;;;;;;;1.77;0.50;;;23.70;79.90;;;;;;5055790;28;20469;-82
2023/06/23 07:40:19;;;;;;;2.30;0.60;;;23.50;79.40;;;;;;5062353;28;20918;-81
2023/06/23 07:42:46;;;;;;;1.00;0.50;;;23.90;81.10;;;;;;5044362;28;20493;-80
2023/06/23 07:45:13;;;;;;;0.50;0.40;;;23.90;79.50;;;;;;5048989;28;20483;-80
2023/06/23 07:47:40;;;;;;;0.50;0.30;;;23.80;79.70;;;;;;5044775;28;20547;-80
2023/06/23 07:50:07;;;;;;;0.87;0.50;;;24.10;79.80;;;;;;5046939;28;20477;-79
2023/06/23 07:52:34;;;;;;;1.27;0.50;;;23.80;80.50;;;;;;5045924;28;20461;-81
2023/06/23 07:55:02;;;;;;;0.80;0.50;;;23.90;79.90;;;;;;5044125;28;20469;-77
2023/06/23 07:57:31;;;;;;;1.23;0.40;;;24.10;83.10;;;;;;5043443;28;20457;-77
2023/06/23 07:59:57;;;;;;;2.10;0.40;;;24.30;79.40;;;;;;5045587;28;20513;-77
2023/06/23 08:02:24;;;;;;;1.70;0.50;;;24.60;79.70;;;;;;5044893;28;20505;-80
2023/06/23 08:04:51;;;;;;;0.70;0.40;;;24.80;78.20;;;;;;5044368;28;20466;-77
2023/06/23 08:07:18;;;;;;;5.20;0.60;;;24.70;76.60;;;;;;5045496;28;20503;-79
2023/06/23 08:09:45;;;;;;;2.60;0.50;;;24.40;77.70;;;;;;5046619;28;20489;-77
2023/06/23 08:12:12;;;;;;;2.17;0.40;;;23.90;79.60;;;;;;5045281;28;20601;-77
2023/06/23 08:14:40;;;;;;;3.53;0.40;;;23.80;79.70;;;;;;5045964;28;20518;-78
2023/06/23 08:17:07;;;;;;;0.60;0.40;;;23.60;80.70;;;;;;5043644;28;20519;-77
2023/06/23 08:19:35;;;;;;;0.53;0.40;;;23.70;81.70;;;;;;5046441;28;20476;-78
2023/06/23 08:22:03;;;;;;;2.77;0.40;;;24.10;81.60;;;;;;5045029;28;20471;-77
2023/06/23 08:24:30;;;;;;;0.60;0.40;;;23.90;80.90;;;;;;5046412;28;20885;-77
2023/06/23 08:26:57;;;;;;;2.50;0.40;;;23.60;81.60;;;;;;5050199;28;20476;-80
2023/06/23 08:29:24;;;;;;;2.40;0.40;;;23.70;84.10;;;;;;5044163;28;20485;-78
2023/06/23 08:31:52;;;;;;;0.50;0.40;;;23.90;81.80;;;;;;5045846;28;20467;-77
2023/06/23 08:34:20;;;;;;;0.80;0.40;;;23.80;83.20;;;;;;5048156;28;20546;-80
2023/06/23 08:36:47;;;;;;;4.20;0.70;;;23.40;83.40;;;;;;5046693;28;20571;-80
2023/06/23 08:39:14;;;;;;;0.50;0.30;;;23.50;84.70;;;;;;5044893;28;20442;-78
2023/06/23 08:41:42;;;;;;;1.47;0.40;;;23.50;84.50;;;;;;5047840;28;21203;-78
2023/06/23 08:44:14;;;;;;;0.57;0.40;;;23.50;85.00;;;;;;5040227;28;20815;-78
2023/06/23 08:46:43;;;;;;;0.90;0.40;;;23.40;84.10;;;;;;5044354;28;21296;-78
2023/06/23 08:49:15;;;;;;;0.53;0.40;;;23.30;83.70;;;;;;5040884;28;20481;-78
2023/06/23 08:51:43;;;;;;;0.63;0.30;;;23.10;85.20;;;;;;5039889;28;20568;-78
2023/06/23 08:54:10;;;;;;;1.63;0.50;;;23.10;85.30;;;;;;5046035;28;20574;-81
2023/06/23 08:56:38;;;;;;;0.50;0.40;;;23.30;86.00;;;;;;5046888;28;21038;-81
2023/06/23 08:59:05;;;;;;;0.60;0.60;;;23.30;84.40;;;;;;5037980;28;20566;-78
2023/06/23 09:01:33;;;;;;;0.60;0.50;;;23.10;85.50;;;;;;5049297;28;20558;-78
2023/06/23 09:04:01;;;;;;;0.70;0.40;;;22.90;85.30;;;;;;5060863;28;20469;-78
2023/06/23 09:06:29;;;;;;;0.60;0.30;;;22.90;86.80;;;;;;5044525;28;20500;-77
2023/06/23 09:08:58;;;;;;;0.50;0.30;;;23.00;87.40;;;;;;5052051;28;20510;-82
2023/06/23 09:11:25;;;;;;;0.40;0.30;;;22.80;84.00;;;;;;5043620;28;20472;-81
2023/06/23 09:13:53;;;;;;;2.50;0.70;;;22.80;84.60;;;;;;5045720;28;20537;-80
2023/06/23 09:16:21;;;;;;;0.50;0.40;;;23.00;85.10;;;;;;5046566;28;20545;-81
2023/06/23 09:18:48;;;;;;;0.93;0.40;;;23.00;85.00;;;;;;5046373;28;20465;-80
2023/06/23 09:21:15;;;;;;;6.53;0.50;;;22.90;85.00;;;;;;5045137;28;20503;-81
2023/06/23 09:26:50;;;;;;;2.30;0.40;;;22.70;86.20;;;;;;5125034;27;20988;-78
2023/06/23 09:29:20;;;;;;;1.03;0.40;;;22.40;86.10;;;;;;5119036;27;20449;-78
2023/06/23 09:31:47;;;;;;;1.47;0.40;;;22.50;87.90;;;;;;5124452;28;20473;-80
2023/06/23 09:34:22;;;;;;;1.03;0.40;;;22.50;88.50;;;;;;5121783;27;20457;-77
2023/06/23 09:36:49;;;;;;;0.67;0.40;;;22.50;87.70;;;;;;5122490;28;20534;-77
2023/06/23 09:39:17;;;;;;;0.90;0.40;;;22.60;87.70;;;;;;5125207;27;20442;-78
2023/06/23 09:41:55;;;;;;;3.90;0.40;;;23.00;87.30;;;;;;5119626;27;20497;-81
2023/06/23 09:44:22;;;;;;;0.50;0.50;;;22.60;88.30;;;;;;5121277;28;20448;-79
2023/06/23 09:47:00;;;;;;;1.03;0.30;;;22.50;89.90;;;;;;5124588;27;20510;-80
2023/06/23 09:49:27;;;;;;;5.33;0.60;;;22.60;90.70;;;;;;5123635;27;20491;-79
2023/06/23 09:51:54;;;;;;;1.37;0.60;;;22.60;90.60;;;;;;5121597;27;20527;-80
2023/06/23 09:54:32;;;;;;;1.47;0.80;;;22.20;92.20;;;;;;5124599;27;20511;-80
2023/06/23 09:57:05;;;;;;;1.03;0.50;;;21.80;93.10;;;;;;5121034;27;20468;-79
2023/06/23 09:59:32;;;;;;;1.23;0.30;;;21.30;94.00;;;;;;5117105;27;20462;-82
2023/06/23 10:01:59;;;;;;;0.70;0.60;;;21.00;95.40;;;;;;5117631;27;20508;-78
2023/06/23 10:04:29;;;;;;;2.40;0.60;;;20.60;95.20;;;;;;5119376;27;20508;-80
2023/06/23 10:06:56;;;;;;;1.00;0.70;;;20.80;94.70;;;;;;5120389;27;20454;-79
2023/06/23 10:09:24;;;;;;;1.17;1.07;;;21.20;93.20;;;;;;5120552;27;20451;-81
2023/06/23 10:11:52;;;;;;;1.27;1.00;;;21.50;91.80;;;;;;5119707;27;20929;-81
2023/06/23 10:14:21;;;;;;;1.10;1.00;;;21.70;91.50;;;;;;5123712;27;20442;-78
2023/06/23 10:16:49;;;;;;;1.07;0.97;;;21.80;91.50;;;;;;5117058;27;20480;-81
2023/06/23 10:19:17;;;;;;;1.17;0.87;;;21.70;92.10;;;;;;5125170;27;20938;-79
2023/06/23 10:21:46;;;;;;;1.23;1.00;;;21.90;92.40;;;;;;5123225;27;20528;-78
2023/06/23 10:24:21;;;;;;;1.23;1.03;;;21.70;92.50;;;;;;5125430;27;20932;-78
2023/06/23 10:26:50;;;;;;;0.93;0.80;;;22.00;92.80;;;;;;5130223;27;20489;-79
2023/06/23 10:29:20;;;;;;;0.90;0.80;;;22.30;92.70;;;;;;5129435;27;21172;-78
2023/06/23 10:31:48;;;;;;;2.83;1.27;;;22.40;90.40;;;;;;5123639;27;20458;-79
2023/06/23 10:34:17;;;;;;;1.10;1.00;;;22.30;90.30;;;;;;5124727;28;21120;-82
2023/06/23 10:36:47;;;;;;;1.13;1.03;;;22.30;90.00;;;;;;5112554;28;20457;-79
2023/06/23 10:39:15;;;;;;;1.43;1.23;;;22.40;90.10;;;;;;5107861;27;20458;-79
2023/06/23 10:41:45;;;;;;;1.53;1.43;;;22.50;88.40;;;;;;5110260;28;20454;-78
2023/06/23 10:44:13;;;;;;;1.33;1.10;;;22.50;88.30;;;;;;5109822;27;20542;-82
2023/06/23 10:46:41;;;;;;;1.70;1.03;;;22.40;88.50;;;;;;5106688;27;20514;-78
2023/06/23 10:49:08;;;;;;;1.47;1.30;;;22.30;90.10;;;;;;5106797;27;20483;-80
2023/06/23 10:51:37;;;;;;;1.87;1.70;;;22.30;88.80;;;;;;5110090;27;20507;-80
2023/06/23 10:54:07;;;;;;;1.37;1.27;;;22.00;89.10;;;;;;5104568;27;20462;-83
2023/06/23 10:56:35;;;;;;;2.87;1.90;;;21.70;90.90;;;;;;5108375;28;20511;-80
2023/06/23 10:59:18;;;;;;;2.53;1.50;;;21.50;91.00;;;;;;5105448;28;20540;-82
2023/06/23 11:02:25;;;;;;;3.70;1.43;;;21.70;91.20;;;;;;5101251;27;20858;-83
2023/06/23 11:04:56;;;;;;;1.30;1.20;;;21.70;91.00;;;;;;5107302;28;20525;-79
2023/06/23 11:07:23;;;;;;;3.70;1.30;;;22.20;90.00;;;;;;5106340;28;20445;-79
2023/06/23 11:10:02;;;;;;;1.53;1.43;;;22.30;88.70;;;;;;5106275;27;20458;-81
2023/06/23 11:12:33;;;;;;;0.97;0.87;;;21.90;86.50;;;;;;5102180;28;20454;-80
2023/06/23 11:15:10;;;;;;;1.63;1.53;;;21.30;89.20;;;;;;5099615;28;20925;-80
2023/06/23 11:17:42;;;;;;;1.87;1.40;;;21.00;90.90;;;;;;5102476;28;20477;-80
2023/06/23 11:20:27;;;;;;;1.60;1.50;;;20.80;91.70;;;;;;5103688;28;20523;-77
2023/06/23 11:22:55;;;;;;;1.60;1.50;;;20.60;92.20;;;;;;5104803;27;20435;-77
2023/06/23 11:25:28;;;;;;;1.63;1.53;;;20.50;92.50;;;;;;5097083;28;20479;-81
2023/06/23 11:28:23;;;;;;;2.03;1.83;;;20.60;92.60;;;;;;5103459;28;20467;-79
2023/06/23 11:30:54;;;;;;;1.80;1.67;;;20.80;92.60;;;;;;5104491;28;20466;-81
2023/06/23 11:33:28;;;;;;;3.20;1.60;;;20.70;92.80;;;;;;5100862;28;20461;-79
2023/06/23 11:35:56;;;;;;;7.10;2.50;;;20.50;93.50;;;;;;5109466;27;20495;-80
2023/06/23 11:38:23;;;;;;;2.20;2.00;;;20.40;93.60;;;;;;5103426;28;20524;-83
2023/06/23 11:40:51;;;;;;;1.80;1.27;;;20.50;93.60;;;;;;5107069;28;20507;-80
2023/06/23 11:43:19;;;;;;;2.27;2.03;;;21.00;92.90;;;;;;5101246;28;20448;-80
2023/06/23 11:45:51;;;;;;;1.93;1.73;;;21.80;92.00;;;;;;5104402;28;20493;-80
2023/06/23 11:48:18;;;;;;;1.93;1.83;;;22.30;90.70;;;;;;5100159;28;20452;-82
2023/06/23 11:50:45;;;;;;;2.83;2.47;;;22.30;89.20;;;;;;5115262;27;20442;-79
2023/06/23 11:53:15;;;;;;;1.83;1.73;;;21.80;89.60;;;;;;5124327;27;20446;-80
2023/06/23 11:55:42;;;;;;;2.80;2.50;;;21.60;91.00;;;;;;5111293;28;20470;-80
2023/06/23 11:58:10;;;;;;;7.83;2.43;;;21.20;91.80;;;;;;5105515;27;20469;-82
2023/06/23 12:00:38;;;;;;;1.63;1.50;;;21.00;92.60;;;;;;5105301;28;20447;-80
2023/06/23 12:03:05;;;;;;;2.03;1.83;;;20.70;93.30;;;;;;5101275;28;20465;-79
2023/06/23 12:05:37;;;;;;;3.33;1.83;;;20.60;93.80;;;;;;5107088;28;20486;-80
2023/06/23 12:08:06;;;;;;;2.30;2.10;;;20.70;94.30;;;;;;5104219;28;20446;-80
2023/06/23 12:10:37;;;;;;;2.23;2.03;;;20.80;93.60;;;;;;5111348;27;20537;-81
2023/06/23 12:13:09;;;;;;;2.90;1.83;;;21.00;93.80;;;;;;5105049;28;20467;-80
2023/06/23 12:15:37;;;;;;;4.50;2.57;;;21.20;92.50;;;;;;5105282;28;20458;-82
2023/06/23 12:18:04;;;;;;;5.07;1.87;;;21.50;92.20;;;;;;5101435;28;20486;-83
2023/06/23 12:20:35;;;;;;;2.47;2.30;;;21.70;91.70;;;;;;5108572;27;20480;-80
2023/06/23 12:23:03;;;;;;;2.43;2.30;;;22.10;92.00;;;;;;5105708;28;21466;-85
2023/06/23 12:25:32;;;;;;;2.97;2.20;;;22.10;90.90;;;;;;5099630;28;20496;-82
2023/06/23 12:28:03;;;;;;;2.33;2.13;;;21.80;91.20;;;;;;5102600;28;20890;-80
2023/06/23 12:30:39;;;;;;;2.70;2.50;;;21.30;91.80;;;;;;5103382;28;20473;-80
2023/06/23 12:33:12;;;;;;;2.50;2.00;;;21.00;92.10;;;;;;5100085;28;20457;-80
2023/06/23 12:35:40;;;;;;;2.53;2.23;;;20.70;92.80;;;;;;5105816;28;20465;-80
2023/06/23 12:38:09;;;;;;;9.63;2.60;;;20.50;93.30;;;;;;5105211;28;20447;-80
2023/06/23 12:40:37;;;;;;;5.17;3.33;;;20.40;94.00;;;;;;5101439;28;20968;-83
2023/06/23 12:43:06;;;;;;;2.67;2.43;;;20.20;94.80;;;;;;5098520;28;20487;-80
2023/06/23 12:45:37;;;;;;;4.70;3.73;;;19.80;97.90;;;;;;5098096;28;20478;-78
2023/06/23 12:48:07;;;;;;;3.70;3.40;;;19.40;99.90;;;;;;5103719;28;20607;-78
2023/06/23 12:50:35;;;;;;;5.20;4.43;;;19.10;99.90;;;;;;5105808;27;20448;-79
2023/06/23 12:53:01;;;;;;;3.67;3.40;;;18.90;99.90;;;;;;5102645;27;20466;-78
2023/06/23 12:55:28;;;;;;;4.33;3.93;;;18.90;99.90;;;;;;5105415;28;21034;-77
2023/06/23 12:57:55;;;;;;;4.40;4.00;;;19.00;99.90;;;;;;5100560;28;20539;-78
2023/06/23 13:00:24;;;;;;;4.47;4.07;;;19.10;99.90;;;;;;5105030;28;20479;-77